GLO1108 SBSP-SBCT
Flight info
| Callsign | GLO1108 |
|---|---|
| Flight time | 0h 36m |
| Altitude | 26000 |
| Route | SOVSI UZ85 RAXIT |
| Aircraft | B737/M-SDFGIKLORWXY/LB1 |
Departure
| Time | 2026-05-08 15:55 |
|---|---|
| Airport | Congonhas–Deputado Freitas Nobre Airport (SBSP) |
Arrival
| Time | 2026-05-08 16:32 |
|---|---|
| Airport | Curitiba-Afonso Pena International Airport (SBCT) |
| Time | Latitude | Longitude | Altitude | Speed | Heading |
|---|---|---|---|---|---|
| 2026-05-08 15:24 | -23.62941 | -46.65809 | 2599 ft | 0 kts | 328° |
| 2026-05-08 15:48 | -23.62968 | -46.65791 | 2599 ft | 4 kts | 340° |
| 2026-05-08 15:48 | -23.62984 | -46.65791 | 2599 ft | 1 kts | 57° |
| 2026-05-08 15:51 | -23.62958 | -46.65747 | 2599 ft | 11 kts | 57° |
| 2026-05-08 15:52 | -23.62917 | -46.65676 | 2600 ft | 11 kts | 57° |
| 2026-05-08 15:52 | -23.62884 | -46.65613 | 2601 ft | 2 kts | 93° |
| 2026-05-08 15:52 | -23.62898 | -46.65596 | 2602 ft | 6 kts | 141° |
| 2026-05-08 15:52 | -23.62961 | -46.65551 | 2602 ft | 16 kts | 147° |
| 2026-05-08 15:53 | -23.63075 | -46.65507 | 2601 ft | 18 kts | 152° |
| 2026-05-08 15:53 | -23.63179 | -46.65435 | 2601 ft | 17 kts | 146° |
| 2026-05-08 15:53 | -23.63280 | -46.65366 | 2601 ft | 17 kts | 148° |
| 2026-05-08 15:53 | -23.63377 | -46.65299 | 2601 ft | 16 kts | 147° |
| 2026-05-08 15:54 | -23.63415 | -46.65204 | 2602 ft | 16 kts | 57° |
| 2026-05-08 15:54 | -23.63408 | -46.65134 | 2602 ft | 1 kts | 60° |
| 2026-05-08 15:54 | -23.63402 | -46.65137 | 2602 ft | 1 kts | 336° |
| 2026-05-08 15:54 | -23.63346 | -46.65176 | 2606 ft | 36 kts | 327° |
| 2026-05-08 15:55 | -23.62908 | -46.65479 | 2608 ft | 111 kts | 327° |
| 2026-05-08 15:55 | -23.61109 | -46.66741 | 3572 ft | 169 kts | 328° |
| 2026-05-08 15:55 | -23.60152 | -46.67483 | 4477 ft | 172 kts | 316° |
| 2026-05-08 15:56 | -23.59525 | -46.68702 | 4913 ft | 201 kts | 292° |
| 2026-05-08 15:56 | -23.59102 | -46.70262 | 5204 ft | 227 kts | 292° |
| 2026-05-08 15:56 | -23.58648 | -46.71867 | 6213 ft | 218 kts | 292° |
| 2026-05-08 15:56 | -23.58186 | -46.73437 | 7079 ft | 219 kts | 293° |
| 2026-05-08 15:57 | -23.57714 | -46.74999 | 7415 ft | 217 kts | 293° |
| 2026-05-08 15:57 | -23.57354 | -46.76669 | 7484 ft | 247 kts | 276° |
| 2026-05-08 15:57 | -23.57746 | -46.78613 | 7479 ft | 278 kts | 248° |
| 2026-05-08 15:57 | -23.59153 | -46.80164 | 7859 ft | 304 kts | 211° |
| 2026-05-08 15:58 | -23.61020 | -46.81197 | 8903 ft | 299 kts | 225° |
| 2026-05-08 15:58 | -23.62287 | -46.82936 | 9789 ft | 292 kts | 242° |
| 2026-05-08 15:58 | -23.63682 | -46.84565 | 10560 ft | 309 kts | 223° |
| 2026-05-08 15:58 | -23.65611 | -46.85844 | 10835 ft | 341 kts | 211° |
| 2026-05-08 15:59 | -23.67804 | -46.87015 | 11283 ft | 358 kts | 209° |
| 2026-05-08 15:59 | -23.70058 | -46.88212 | 12091 ft | 360 kts | 210° |
| 2026-05-08 15:59 | -23.72297 | -46.89443 | 13018 ft | 362 kts | 211° |
| 2026-05-08 15:59 | -23.74549 | -46.90739 | 13781 ft | 367 kts | 215° |
| 2026-05-08 16:00 | -23.76587 | -46.92404 | 14513 ft | 365 kts | 227° |
| 2026-05-08 16:00 | -23.78299 | -46.94435 | 15270 ft | 363 kts | 238° |
| 2026-05-08 16:00 | -23.79744 | -46.96703 | 15992 ft | 366 kts | 240° |
| 2026-05-08 16:00 | -23.81141 | -46.99006 | 16599 ft | 372 kts | 240° |
| 2026-05-08 16:01 | -23.82570 | -47.01389 | 17301 ft | 377 kts | 241° |
| 2026-05-08 16:01 | -23.84020 | -47.03795 | 17996 ft | 381 kts | 240° |
| 2026-05-08 16:01 | -23.85492 | -47.06223 | 18660 ft | 385 kts | 240° |
| 2026-05-08 16:01 | -23.86979 | -47.08665 | 19343 ft | 387 kts | 240° |
| 2026-05-08 16:02 | -23.88473 | -47.11107 | 20117 ft | 386 kts | 240° |
| 2026-05-08 16:02 | -23.89970 | -47.13549 | 20825 ft | 388 kts | 240° |
| 2026-05-08 16:02 | -23.91448 | -47.15959 | 21645 ft | 385 kts | 240° |
| 2026-05-08 16:02 | -23.92924 | -47.18362 | 22688 ft | 377 kts | 241° |
| 2026-05-08 16:03 | -23.94370 | -47.20716 | 23697 ft | 370 kts | 241° |
| 2026-05-08 16:03 | -23.95793 | -47.23038 | 24458 ft | 367 kts | 241° |
| 2026-05-08 16:03 | -23.97212 | -47.25361 | 25108 ft | 367 kts | 242° |
| 2026-05-08 16:03 | -23.98626 | -47.27674 | 25654 ft | 365 kts | 242° |
| 2026-05-08 16:04 | -24.00026 | -47.29964 | 25915 ft | 357 kts | 242° |
| 2026-05-08 16:04 | -24.01403 | -47.32217 | 25926 ft | 359 kts | 242° |
| 2026-05-08 16:04 | -24.02776 | -47.34468 | 25956 ft | 363 kts | 242° |
| 2026-05-08 16:04 | -24.04182 | -47.36777 | 25952 ft | 365 kts | 242° |
| 2026-05-08 16:05 | -24.05586 | -47.39076 | 25939 ft | 363 kts | 243° |
| 2026-05-08 16:05 | -24.06985 | -47.41368 | 25944 ft | 361 kts | 242° |
| 2026-05-08 16:05 | -24.08379 | -47.43653 | 25936 ft | 361 kts | 242° |
| 2026-05-08 16:05 | -24.09854 | -47.45883 | 25924 ft | 365 kts | 236° |
| 2026-05-08 16:06 | -24.11648 | -47.47873 | 25931 ft | 370 kts | 227° |
| 2026-05-08 16:06 | -24.13746 | -47.49553 | 25925 ft | 376 kts | 220° |
| 2026-05-08 16:06 | -24.15927 | -47.51071 | 25926 ft | 377 kts | 219° |
| 2026-05-08 16:06 | -24.18158 | -47.52584 | 25918 ft | 378 kts | 219° |
| 2026-05-08 16:07 | -24.20394 | -47.54100 | 25914 ft | 378 kts | 219° |
| 2026-05-08 16:07 | -24.22623 | -47.55625 | 25910 ft | 378 kts | 219° |
| 2026-05-08 16:07 | -24.24851 | -47.57161 | 25904 ft | 379 kts | 219° |
| 2026-05-08 16:07 | -24.27081 | -47.58706 | 25907 ft | 379 kts | 220° |
| 2026-05-08 16:08 | -24.29307 | -47.60253 | 25901 ft | 379 kts | 220° |
| 2026-05-08 16:08 | -24.31537 | -47.61806 | 25893 ft | 380 kts | 220° |
| 2026-05-08 16:08 | -24.33732 | -47.63336 | 25894 ft | 379 kts | 220° |
| 2026-05-08 16:08 | -24.35958 | -47.64888 | 25889 ft | 379 kts | 220° |
| 2026-05-08 16:09 | -24.38184 | -47.66440 | 25890 ft | 379 kts | 220° |
| 2026-05-08 16:09 | -24.39686 | -47.67488 | 25886 ft | 379 kts | 220° |
| 2026-05-08 16:09 | -24.42594 | -47.69584 | 25871 ft | 374 kts | 225° |
| 2026-05-08 16:09 | -24.44551 | -47.71417 | 25881 ft | 368 kts | 230° |
| 2026-05-08 16:10 | -24.46414 | -47.73336 | 25869 ft | 367 kts | 231° |
| 2026-05-08 16:10 | -24.48250 | -47.75272 | 25874 ft | 366 kts | 231° |
| 2026-05-08 16:10 | -24.50083 | -47.77204 | 25871 ft | 365 kts | 231° |
| 2026-05-08 16:10 | -24.51902 | -47.79104 | 25874 ft | 365 kts | 231° |
| 2026-05-08 16:11 | -24.53749 | -47.81019 | 25870 ft | 366 kts | 230° |
| 2026-05-08 16:11 | -24.55604 | -47.82928 | 25870 ft | 366 kts | 230° |
| 2026-05-08 16:11 | -24.57464 | -47.84835 | 25873 ft | 366 kts | 230° |
| 2026-05-08 16:11 | -24.59323 | -47.86738 | 25874 ft | 366 kts | 230° |
| 2026-05-08 16:12 | -24.61191 | -47.88647 | 25873 ft | 367 kts | 230° |
| 2026-05-08 16:12 | -24.63058 | -47.90556 | 25873 ft | 367 kts | 230° |
| 2026-05-08 16:12 | -24.64902 | -47.92442 | 25875 ft | 367 kts | 230° |
| 2026-05-08 16:12 | -24.66742 | -47.94325 | 25867 ft | 368 kts | 230° |
| 2026-05-08 16:13 | -24.68613 | -47.96238 | 25862 ft | 368 kts | 230° |
| 2026-05-08 16:13 | -24.70484 | -47.98153 | 25869 ft | 368 kts | 230° |
| 2026-05-08 16:13 | -24.72359 | -48.00073 | 25880 ft | 368 kts | 230° |
| 2026-05-08 16:13 | -24.74229 | -48.01989 | 25871 ft | 368 kts | 230° |
| 2026-05-08 16:14 | -24.76100 | -48.03907 | 25873 ft | 368 kts | 230° |
| 2026-05-08 16:14 | -24.77972 | -48.05827 | 25876 ft | 368 kts | 230° |
| 2026-05-08 16:14 | -24.79843 | -48.07746 | 25869 ft | 368 kts | 230° |
| 2026-05-08 16:14 | -24.81689 | -48.09641 | 25873 ft | 368 kts | 230° |
| 2026-05-08 16:15 | -24.83562 | -48.11565 | 25889 ft | 369 kts | 230° |
| 2026-05-08 16:15 | -24.85439 | -48.13493 | 25862 ft | 369 kts | 230° |
| 2026-05-08 16:15 | -24.87312 | -48.15418 | 25753 ft | 369 kts | 230° |
| 2026-05-08 16:15 | -24.89200 | -48.17361 | 25306 ft | 372 kts | 230° |
| 2026-05-08 16:16 | -24.91104 | -48.19324 | 24781 ft | 376 kts | 229° |
| 2026-05-08 16:16 | -24.93025 | -48.21302 | 24153 ft | 380 kts | 229° |
| 2026-05-08 16:16 | -24.94961 | -48.23293 | 23528 ft | 383 kts | 229° |
| 2026-05-08 16:16 | -24.96890 | -48.25278 | 22776 ft | 386 kts | 229° |
| 2026-05-08 16:17 | -24.98853 | -48.27300 | 22044 ft | 387 kts | 228° |
| 2026-05-08 16:17 | -25.00189 | -48.28678 | 21519 ft | 390 kts | 228° |
| 2026-05-08 16:17 | -25.02802 | -48.31373 | 20746 ft | 387 kts | 228° |
| 2026-05-08 16:17 | -25.04762 | -48.33395 | 20174 ft | 385 kts | 228° |
| 2026-05-08 16:18 | -25.06713 | -48.35411 | 19598 ft | 384 kts | 228° |
| 2026-05-08 16:18 | -25.08657 | -48.37421 | 19039 ft | 383 kts | 227° |
| 2026-05-08 16:18 | -25.10597 | -48.39427 | 18474 ft | 382 kts | 227° |
| 2026-05-08 16:18 | -25.12506 | -48.41403 | 17895 ft | 380 kts | 227° |
| 2026-05-08 16:19 | -25.14349 | -48.43457 | 17428 ft | 373 kts | 231° |
| 2026-05-08 16:19 | -25.16102 | -48.45552 | 16963 ft | 369 kts | 232° |
| 2026-05-08 16:19 | -25.17817 | -48.47635 | 16534 ft | 366 kts | 232° |
| 2026-05-08 16:19 | -25.19528 | -48.49704 | 16100 ft | 364 kts | 232° |
| 2026-05-08 16:20 | -25.21234 | -48.51747 | 15679 ft | 361 kts | 231° |
| 2026-05-08 16:20 | -25.22943 | -48.53781 | 15255 ft | 360 kts | 231° |
| 2026-05-08 16:20 | -25.24645 | -48.55803 | 14851 ft | 358 kts | 231° |
| 2026-05-08 16:20 | -25.26329 | -48.57804 | 14464 ft | 354 kts | 231° |
| 2026-05-08 16:21 | -25.27973 | -48.59759 | 14103 ft | 351 kts | 231° |
| 2026-05-08 16:21 | -25.29630 | -48.61733 | 13735 ft | 350 kts | 231° |
| 2026-05-08 16:21 | -25.31283 | -48.63702 | 13295 ft | 349 kts | 231° |
| 2026-05-08 16:21 | -25.32920 | -48.65652 | 12916 ft | 344 kts | 231° |
| 2026-05-08 16:22 | -25.34536 | -48.67578 | 12556 ft | 339 kts | 231° |
| 2026-05-08 16:22 | -25.36131 | -48.69482 | 12209 ft | 336 kts | 232° |
| 2026-05-08 16:22 | -25.37721 | -48.71381 | 11858 ft | 337 kts | 232° |
| 2026-05-08 16:22 | -25.39316 | -48.73288 | 11513 ft | 338 kts | 232° |
| 2026-05-08 16:23 | -25.40892 | -48.75172 | 11164 ft | 339 kts | 232° |
| 2026-05-08 16:23 | -25.42492 | -48.77084 | 10805 ft | 336 kts | 232° |
| 2026-05-08 16:23 | -25.44065 | -48.78961 | 10446 ft | 330 kts | 232° |
| 2026-05-08 16:23 | -25.45609 | -48.80806 | 10115 ft | 324 kts | 233° |
| 2026-05-08 16:24 | -25.47122 | -48.82616 | 9825 ft | 317 kts | 233° |
| 2026-05-08 16:24 | -25.48576 | -48.84352 | 9849 ft | 299 kts | 233° |
| 2026-05-08 16:24 | -25.49954 | -48.85998 | 9787 ft | 285 kts | 233° |
| 2026-05-08 16:24 | -25.51279 | -48.87586 | 9401 ft | 278 kts | 234° |
| 2026-05-08 16:25 | -25.52577 | -48.89149 | 8862 ft | 280 kts | 234° |
| 2026-05-08 16:25 | -25.53892 | -48.90731 | 8433 ft | 277 kts | 234° |
| 2026-05-08 16:25 | -25.55190 | -48.92286 | 8044 ft | 274 kts | 234° |
| 2026-05-08 16:25 | -25.56468 | -48.93818 | 7691 ft | 269 kts | 235° |
| 2026-05-08 16:26 | -25.57724 | -48.95324 | 7396 ft | 262 kts | 234° |
| 2026-05-08 16:26 | -25.58969 | -48.96756 | 7128 ft | 255 kts | 232° |
| 2026-05-08 16:26 | -25.60230 | -48.98105 | 6861 ft | 249 kts | 232° |
| 2026-05-08 16:26 | -25.61461 | -48.99412 | 6598 ft | 240 kts | 232° |
| 2026-05-08 16:27 | -25.62638 | -49.00666 | 6370 ft | 232 kts | 232° |
| 2026-05-08 16:27 | -25.63765 | -49.01880 | 6119 ft | 224 kts | 236° |
| 2026-05-08 16:27 | -25.64417 | -49.03301 | 5859 ft | 196 kts | 271° |
| 2026-05-08 16:27 | -25.64161 | -49.04630 | 5690 ft | 174 kts | 300° |
| 2026-05-08 16:28 | -25.63471 | -49.05675 | 5505 ft | 164 kts | 314° |
| 2026-05-08 16:28 | -25.62702 | -49.06526 | 5431 ft | 147 kts | 316° |
| 2026-05-08 16:28 | -25.61960 | -49.07337 | 5277 ft | 150 kts | 315° |
| 2026-05-08 16:28 | -25.61237 | -49.08143 | 5087 ft | 145 kts | 315° |
| 2026-05-08 16:29 | -25.60551 | -49.08913 | 4916 ft | 138 kts | 315° |
| 2026-05-08 16:29 | -25.59891 | -49.09653 | 4741 ft | 134 kts | 315° |
| 2026-05-08 16:29 | -25.59231 | -49.10397 | 4612 ft | 137 kts | 315° |
| 2026-05-08 16:29 | -25.58549 | -49.11163 | 4394 ft | 139 kts | 315° |
| 2026-05-08 16:30 | -25.57908 | -49.11886 | 4226 ft | 131 kts | 315° |
| 2026-05-08 16:30 | -25.57288 | -49.12584 | 4067 ft | 128 kts | 316° |
| 2026-05-08 16:30 | -25.56675 | -49.13269 | 3937 ft | 125 kts | 315° |
| 2026-05-08 16:30 | -25.56057 | -49.13967 | 3728 ft | 125 kts | 311° |
| 2026-05-08 16:31 | -25.55432 | -49.14675 | 3594 ft | 136 kts | 312° |
| 2026-05-08 16:31 | -25.54743 | -49.15445 | 3402 ft | 143 kts | 309° |
| 2026-05-08 16:31 | -25.54062 | -49.16209 | 3198 ft | 142 kts | 307° |
| 2026-05-08 16:31 | -25.53377 | -49.16981 | 2994 ft | 136 kts | 309° |
| 2026-05-08 16:32 | -25.52843 | -49.17580 | 2988 ft | 81 kts | 314° |
| 2026-05-08 16:32 | -25.52586 | -49.17868 | 2990 ft | 35 kts | 314° |
| 2026-05-08 16:32 | -25.52519 | -49.17992 | 2991 ft | 14 kts | 231° |
| 2026-05-08 16:32 | -25.52614 | -49.18001 | 2991 ft | 14 kts | 177° |
| 2026-05-08 16:33 | -25.52706 | -49.17998 | 2990 ft | 13 kts | 178° |
| 2026-05-08 16:33 | -25.52795 | -49.17995 | 2987 ft | 13 kts | 178° |
| 2026-05-08 16:33 | -25.52877 | -49.17972 | 2987 ft | 12 kts | 135° |
| 2026-05-08 16:33 | -25.52939 | -49.17908 | 2989 ft | 12 kts | 137° |
| 2026-05-08 16:34 | -25.52977 | -49.17840 | 2989 ft | 12 kts | 93° |
| 2026-05-08 16:34 | -25.52979 | -49.17751 | 2989 ft | 11 kts | 92° |
| 2026-05-08 16:34 | -25.52983 | -49.17664 | 2990 ft | 11 kts | 99° |
| 2026-05-08 16:34 | -25.53031 | -49.17596 | 2990 ft | 13 kts | 135° |
| 2026-05-08 16:35 | -25.53101 | -49.17519 | 2990 ft | 14 kts | 134° |
| 2026-05-08 16:35 | -25.53168 | -49.17443 | 2991 ft | 13 kts | 134° |
| 2026-05-08 16:35 | -25.53232 | -49.17372 | 2991 ft | 13 kts | 134° |
| 2026-05-08 16:35 | -25.53294 | -49.17302 | 2991 ft | 13 kts | 134° |
| 2026-05-08 16:36 | -25.53355 | -49.17234 | 2992 ft | 12 kts | 134° |
| 2026-05-08 16:36 | -25.53414 | -49.17167 | 2992 ft | 12 kts | 134° |
| 2026-05-08 16:36 | -25.53481 | -49.17139 | 2992 ft | 12 kts | 213° |
| 2026-05-08 16:36 | -25.53514 | -49.17198 | 2992 ft | 7 kts | 218° |
| 2026-05-08 16:37 | -25.53553 | -49.17222 | 2992 ft | 3 kts | 209° |
| 2026-05-08 16:37 | -25.53560 | -49.17227 | 2992 ft | 0 kts | 209° |